Terminal Aerodrome Forecast
Issued by NWS Sterling, VA

Current Version | Previous Version | Text Only | Print | Product List | Glossary Off
Versions: 1 2 3 4 5 6 7 8 9 10 11 12 13 14 15 16 17 18 19 20 21 22 23 24 25

000
FTUS41 KLWX 040541 RRA
TAFIAD
TAF
KIAD 040541Z 0406/0512 07005KT 3SM -RA OVC020
     FM040900 05004KT 2SM -RA OVC008
     FM041600 05004KT P6SM BKN015
     FM042300 07005KT P6SM OVC008
     FM050400 05004KT P6SM OVC003=

USA.gov is the U.S. government's official web portal to all federal, state and local government web resources and services.